Etusivu
METAR-TAF:

METAR-TAF

Lentoasemat :

Gibraltar, Gibraltar

Gibraltarin lentoasema

Leveyspiiri: 36-09N, Pituuspiiri: 005-21W, korkeus merenpinnasta: 5 m

Tämänhetkinen sää

Tämä raportti tehtiin 47 minuuttia sitten, kello 13.50 UTC
Tuuli 9 kn idästä
Lämpötila 25°C
Kosteus 79%
Ilmanpaine 1015 hPa
Näkyvyys: 8000 m
selkeää
usvaa

METAR: LXGB 271350Z 08009KT 8000 HZ SKC 25/21 Q1015 NOSIG

Aika: 16:37 (14:37 UTC)

Sääennuste

Tämä raportti tehtiin 3 tuntia ja 59 minuuttia sitten, kello 10.38 UTC
Ennuste voimassa 27. päivästä klo 12 UTC - 27. päivään klo 21 UTC
Tuuli 8 kn idästä
Näkyvyys: 9000 m
Muutamia pilviä 1300 ft:n korkeudessa
usvaa
Todennäköisyys 40%
27. päivästä klo 17 UTC - 27. päivään klo 21 UTC
Näkyvyys: 6000 m
Todennäköisyys 30% :
Ajoittain
27. päivästä klo 20 UTC - 27. päivään klo 21 UTC
Hajanaisia pilviä 1300 ft:n korkeudessa

TAF: LXGB 271038Z 2712/2721 08008KT 9000 HZ FEW013 PROB40 2717/2721 6000 PROB30 TEMPO 2720/2721 SCT013

Säähavainnot ja -ennusteet yli 4000 lentoasemalta (METAR- ja TAF-raportit).

Käytössä olevat sääasemat on merkitty karttaan keltaisilla ja punaisilla pisteillä.

Aseta hiiri pisteen päälle nähdäksesi sääaseman nimen.

Klikkaa sitten nähdäksesi säähavainnot ja -ennusteet.

Kartan vaihtaminen: klikkaa mustalla rastilla varustettuja vihreitä pisteitä, niin voit zoomata sisään; viivalla varustettua vihreää pistettä, niin voit zoomata ulos tai vihreitä nuolia, niin pääset viereisille kartoille.


METAR-TAF: